Cedar Creek, NE (68016)

2:49 PM CST on February 06, 2016 (GMT -0600)
Cedar Creek | | Change Station
CLOSE
Current Station
Personal Weather Station
Location: Cedar Creek, NE
Elevation: 1014 ft
Nearby Weather Stations

Elev 1014 ft 41.04 °N, 96.10 °W | Updated 12 seconds ago

Partly Cloudy
Partly Cloudy
41.5 °F
Feels Like 42 °F
N
1.1
Wind Variable Wind from SE
Gusts 2.5 mph

Today
High -- | Low -- °F
--% Chance of Precip.
Yesterday
High -- | Low -- °F
Precip. -- in
Pressure 30.11 in
Visibility 10.0 miles
Clouds Clear
Windchill 42 °F
Dew Point 29 °F
Humidity 60%
Rainfall 0.02 in
Snow Depth Not available.
7:30 AM 5:47 PM
Waning Crescent, 4% visible
METAR KMLE 062035Z AUTO 21007G16KT 10SM CLR 05/M03 A3011 RMK AO2 T00471026
Pressure 30.11 in
Visibility 10.0 miles
Clouds Clear
Windchill 42 °F
Dew Point 29 °F
Humidity 60%
Rainfall 0.02 in
Snow Depth Not available.
7:30 AM 5:47 PM
Waning Crescent, 4% visible
METAR KMLE 062035Z AUTO 21007G16KT 10SM CLR 05/M03 A3011 RMK AO2 T00471026

10-Day Weather Forecast

Almanac

Astronomy

Feb. 06, 2016 Rise Set
Actual Time
Civil Twilight
Nautical Twilight
Astronomical Twilight
Moon
Length of Visible Light
Length of Day
Tomorrow will be .
, % of the Moon is Illuminated

Today's Extremes

State Highs State Lows

Community

WunderPhotos

Upload Photos

1,891,046 photos uploaded!

WunderBlog® & News

Nearby

Air Quality

  Air Quality AQ Index Pollutant
Not available.

Snow Depth

Station Depth Elevation

Earthquake Activity

City Distance Mag. Time & Date
Minimum magnitude displayed is 2.5.

Coastal Water Temperatures

Place Temperature

Stations

Nearby Weather Stations

Station Location Temp. Windchill Dew Point Humidity Wind Precip. Elev Updated Type
                   

Watches & Warnings

There are currently no watches in effect.